Latest Weather Observations for Esperance Airport

IDW60801

Issued at 1:23 pm WST Sunday 24 October 2021 (issued every 10 minutes, with the page automatically refreshed every 10 minutes)

About weather observations | Map of weather stations | Latest weather observations for WA | Other Formats
Station Details ID: 009542 Name: ESPERANCE AERO Lat: -33.68 Lon: 121.83 Height: 142.0 m
Data from the previous 72 hours. | See also: Recent months at Esperance Airport
Date/Time
WST
Temp
°C
App
Temp
°C
Dew
Point
°C
Rel
Hum
%
Delta-T
°C
Wind Press
QNH
hPa
Press
MSL
hPa
Rain since
9am
mm
Dir  Spd
km/h
Gust
km/h
Spd
kts
Gust
kts
24/01:00pm 27.0 22.3 9.4 33 9.8 NNE 24 37 13 20 1015.9 1015.8 0.0
24/12:30pm 25.2 20.8 9.1 36 8.8 NNE 22 35 12 19 1016.7 1016.5 0.0
24/12:00pm 25.6 20.1 9.0 35 9.1 NNE 28 41 15 22 1017.0 1016.8 0.0
24/11:30am 24.9 19.7 8.8 36 8.7 NNE 26 39 14 21 1017.8 1017.6 0.0
24/11:00am 24.6 19.1 10.5 41 7.9 N 30 41 16 22 1018.5 1018.3 0.0
24/10:30am 23.5 18.2 9.9 42 7.5 NNE 28 41 15 22 1019.2 1019.0 0.0
24/10:00am 21.8 15.6 8.0 41 7.2 N 30 39 16 21 1019.8 1019.6 0.0
24/09:30am 20.7 14.9 8.0 44 6.6 NNE 28 39 15 21 1020.3 1020.1 0.0
24/09:00am 19.3 12.5 7.7 47 6.0 N 33 43 18 23 1020.5 1020.3 0.0
24/08:30am 17.9 11.3 7.6 51 5.2 NNE 32 44 17 24 1020.7 1020.5 0.0
24/08:00am 16.3 9.9 7.0 54 4.6 NNE 30 44 16 24 1021.0 1020.8 0.0
24/07:30am 14.9 7.6 7.0 59 3.9 NNE 35 48 19 26 1021.3 1021.2 0.0
24/07:00am 13.6 7.0 7.6 67 3.0 NNE 32 44 17 24 1021.6 1021.5 0.0
24/06:30am 12.2 5.4 7.5 73 2.3 NNE 33 46 18 25 1021.8 1021.7 0.0
24/06:00am 11.0 4.8 7.9 81 1.5 NNE 30 41 16 22 1021.9 1021.8 0.0
24/05:30am 10.1 4.7 8.0 87 1.0 NNE 26 35 14 19 1021.9 1021.8 0.0
24/05:00am 10.0 4.6 8.1 88 0.9 NNE 26 37 14 20 1021.7 1021.6 0.0
24/04:30am 10.0 4.6 8.1 88 0.9 NNE 26 35 14 19 1021.7 1021.6 0.0
24/04:00am 10.0 4.7 8.3 89 0.8 NNE 26 33 14 18 1021.8 1021.7 0.0
24/03:30am 10.2 5.3 8.5 89 0.8 NNE 24 35 13 19 1021.9 1021.8 0.0
24/03:00am 10.3 5.5 8.7 90 0.8 NNE 24 37 13 20 1022.0 1021.9 0.0
24/02:30am 10.1 5.7 8.9 92 0.6 NNE 22 33 12 18 1022.2 1022.1 0.0
24/02:00am 10.0 5.2 8.8 92 0.6 NNE 24 35 13 19 1022.5 1022.4 0.0
24/01:30am 10.1 5.6 8.7 91 0.7 NNE 22 33 12 18 1022.7 1022.6 0.0
24/01:00am 10.1 6.1 8.9 92 0.6 NE 20 28 11 15 1023.0 1022.9 0.0
24/12:30am 10.4 6.4 9.2 92 0.6 NE 20 32 11 17 1023.3 1023.2 0.0
24/12:00am 10.4 6.5 9.3 93 0.5 NE 20 28 11 15 1023.6 1023.5 0.0
 
Date/Time
WST
Temp
°C
App
Temp
°C
Dew
Point
°C
Rel
Hum
%
Delta-T
°C
Wind Press
QNH
hPa
Press
MSL
hPa
Rain since
9am
mm
Dir  Spd
km/h
Gust
km/h
Spd
kts
Gust
kts
23/11:30pm 10.1 6.1 9.0 93 0.5 NE 20 30 11 16 1024.0 1023.8 0.0
23/11:00pm 10.3 6.9 9.1 92 0.6 NE 17 24 9 13 1024.2 1024.0 0.0
23/10:30pm 10.4 6.6 9.2 92 0.6 NE 19 28 10 15 1024.4 1024.2 0.0
23/10:00pm 10.6 7.2 9.2 91 0.7 ENE 17 26 9 14 1024.6 1024.4 0.0
23/09:30pm 10.8 6.9 9.4 91 0.7 ENE 20 28 11 15 1024.9 1024.7 0.0
23/09:00pm 11.4 7.2 9.7 89 0.9 ENE 22 30 12 16 1025.1 1024.9 0.0
23/08:30pm 11.8 7.9 9.5 86 1.2 E 20 33 11 18 1025.1 1024.9 0.0
23/08:00pm 12.6 8.5 10.1 85 1.3 E 22 32 12 17 1025.2 1025.0 0.0
23/07:30pm 12.2 8.3 10.8 91 0.7 ESE 22 28 12 15 1025.2 1025.0 0.0
23/07:00pm 12.3 8.7 10.5 89 0.9 ESE 20 24 11 13 1025.0 1024.8 0.0
23/06:30pm 12.4 8.7 10.0 85 1.2 ESE 20 24 11 13 1025.0 1024.8 0.0
23/06:00pm 13.8 8.0 9.6 76 2.2 ESE 30 37 16 20 1024.9 1024.7 0.0
23/05:30pm 15.0 9.5 10.4 74 2.4 ESE 30 39 16 21 1024.8 1024.6 0.0
23/05:00pm 15.9 9.8 9.8 67 3.2 ESE 32 41 17 22 1024.6 1024.4 0.0
23/04:30pm 17.0 10.9 10.6 66 3.4 ESE 33 43 18 23 1024.6 1024.4 0.0
23/04:00pm 17.3 11.2 10.4 64 3.7 ESE 33 43 18 23 1024.6 1024.4 0.0
23/03:30pm 18.1 12.8 11.4 65 3.7 SE 30 41 16 22 1024.6 1024.4 0.0
23/03:00pm 18.6 13.5 10.7 60 4.3 ESE 28 37 15 20 1024.7 1024.5 0.0
23/02:30pm 18.9 13.8 10.7 59 4.5 ESE 28 39 15 21 1024.7 1024.5 0.0
23/02:00pm 19.9 16.3 11.9 60 4.5 ESE 22 33 12 18 1025.1 1024.9 0.0
23/01:30pm 19.6 16.8 10.0 54 5.2 E 15 22 8 12 1025.6 1025.4 0.0
23/01:00pm 19.2 16.2 9.4 53 5.2 ESE 15 24 8 13 1026.0 1025.8 0.0
23/12:30pm 18.9 16.2 9.1 53 5.2 E 13 20 7 11 1026.4 1026.2 0.0
23/12:00pm 18.8 16.7 9.8 56 4.8 E 11 17 6 9 1026.8 1026.6 0.0
23/11:30am 17.9 15.5 8.7 55 4.8 E 11 24 6 13 1027.3 1027.2 0.0
23/11:00am 16.9 13.6 8.1 56 4.5 ESE 15 24 8 13 1027.6 1027.5 0.0
23/10:30am 16.7 13.1 8.4 58 4.3 ESE 17 28 9 15 1028.0 1027.9 0.0
23/10:00am 16.0 13.5 8.0 59 4.0 ENE 11 20 6 11 1028.4 1028.3 0.0
23/09:30am 15.7 14.3 9.4 66 3.3 E 7 13 4 7 1028.8 1028.7 0.0
23/09:00am 15.9 13.8 9.8 67 3.2 ESE 11 19 6 10 1028.9 1028.8 0.0
23/08:30am 15.1 13.1 10.1 72 2.6 NNE 11 15 6 8 1029.0 1028.9 0.0
23/08:00am 14.7 12.5 10.9 78 2.0 NNE 13 19 7 10 1029.1 1029.0 0.0
23/07:30am 13.9 12.2 12.6 92 0.7 NNE 13 19 7 10 1029.0 1028.9 0.0
23/07:00am 12.4 11.4 12.2 99 0.1 NNE 9 13 5 7 1028.8 1028.7 0.0
23/06:30am 11.1 9.7 10.9 99 0.1 NE 9 11 5 6 1028.5 1028.4 0.0
23/06:00am 9.4 7.6 9.3 99 0.0 NNE 9 13 5 7 1028.1 1028.0 0.0
23/05:30am 8.6 6.6 8.5 99 0.0 NNE 9 13 5 7 1028.0 1027.9 0.0
23/05:00am 8.4 6.3 8.3 99 0.0 NNE 9 11 5 6 1027.7 1027.6 0.0
23/04:30am 8.2 5.7 8.1 99 0.0 NNE 11 13 6 7 1027.4 1027.3 0.0
23/04:00am 8.1 5.6 8.0 99 0.0 NNE 11 15 6 8 1027.1 1026.9 0.0
23/03:30am 8.1 5.6 8.1 100 0.0 NNE 11 13 6 7 1027.0 1026.8 0.0
23/03:00am 7.1 4.7 7.1 100 0.0 NNE 9 13 5 7 1027.0 1026.8 0.0
23/02:30am 7.4 5.1 7.3 99 0.0 NNE 9 11 5 6 1026.8 1026.6 0.0
23/02:00am 8.1 5.9 8.0 99 0.0 NE 9 11 5 6 1026.8 1026.6 0.0
23/01:30am 8.4 6.7 8.3 99 0.0 NE 7 9 4 5 1026.9 1026.7 0.0
23/01:00am 8.1 6.3 8.0 99 0.0 ENE 7 11 4 6 1027.0 1026.8 0.0
23/12:31am 9.0 7.6 8.9 99 0.0 ENE 6 7 3 4 1027.1 1026.9 0.0
23/12:30am 9.0 7.6 8.9 99 0.0 ENE 6 7 3 4 1027.1 1026.9 0.0
23/12:00am 9.5 8.1 9.4 99 0.0 ENE 7 9 4 5 1027.2 1027.1 0.0
 
Date/Time
WST
Temp
°C
App
Temp
°C
Dew
Point
°C
Rel
Hum
%
Delta-T
°C
Wind Press
QNH
hPa
Press
MSL
hPa
Rain since
9am
mm
Dir  Spd
km/h
Gust
km/h
Spd
kts
Gust
kts
22/11:57pm 9.4 7.9 9.3 99 0.0 ENE 7 9 4 5 1027.2 1027.1 0.0
22/11:30pm 10.1 8.8 10.0 99 0.1 ENE 7 9 4 5 1027.2 1027.1 0.0
22/11:00pm 10.3 8.7 10.1 99 0.1 ENE 9 13 5 7 1027.1 1026.9 0.0
22/10:30pm 10.6 9.4 10.4 99 0.1 E 7 11 4 6 1027.1 1026.9 0.0
22/10:00pm 10.7 9.2 10.5 99 0.1 E 9 13 5 7 1027.0 1026.8 0.0
22/09:30pm 10.9 8.7 10.7 99 0.1 E 13 15 7 8 1027.0 1026.8 0.0
22/09:00pm 11.3 9.2 11.1 99 0.1 E 13 17 7 9 1027.0 1026.8 0.0
22/08:30pm 11.3 9.2 11.0 98 0.2 E 13 15 7 8 1026.9 1026.7 0.0
22/08:00pm 11.1 9.2 10.5 96 0.3 ESE 11 15 6 8 1026.8 1026.6 0.0
22/07:30pm 10.8 8.5 10.6 99 0.1 SE 13 17 7 9 1026.4 1026.2 0.0
22/07:00pm 11.2 9.2 10.3 94 0.5 SE 11 13 6 7 1026.1 1025.9 0.0
22/06:30pm 12.0 9.5 9.7 86 1.2 SE 13 15 7 8 1025.8 1025.6 0.0
22/06:00pm 13.1 10.2 9.5 79 1.8 SE 15 19 8 10 1025.5 1025.3 0.0
22/05:30pm 14.4 10.8 10.0 75 2.3 SE 19 24 10 13 1025.2 1025.0 0.0
22/05:00pm 15.3 11.3 9.2 67 3.1 SSE 20 26 11 14 1024.9 1024.7 0.0
22/04:30pm 15.9 12.2 10.0 68 3.1 SSE 20 28 11 15 1024.6 1024.4 0.0
22/04:00pm 15.8 12.5 9.7 67 3.2 SSE 17 24 9 13 1024.5 1024.3 0.0
22/03:30pm 15.6 11.8 9.7 68 3.1 SSE 20 24 11 13 1024.2 1024.0 0.0
22/03:00pm 17.5 14.4 11.5 68 3.3 SSE 19 26 10 14 1024.0 1023.8 0.0
22/02:30pm 17.0 12.0 8.2 56 4.5 SSW 24 32 13 17 1024.0 1023.8 0.0
22/02:00pm 17.2 13.2 10.3 64 3.7 S 22 32 12 17 1023.9 1023.7 0.0
22/01:30pm 16.5 13.5 10.6 68 3.2 S 17 26 9 14 1024.0 1023.8 0.0
22/01:00pm 17.0 14.0 10.8 67 3.3 S 17 24 9 13 1024.0 1023.8 0.0
22/12:30pm 16.4 14.9 12.0 75 2.4 SE 11 19 6 10 1024.2 1024.0 0.0
22/12:00pm 16.1 13.6 12.3 78 2.1 SSE 17 22 9 12 1024.3 1024.1 0.0
22/11:30am 16.7 14.2 11.2 70 3.0 SSW 15 24 8 13 1024.4 1024.2 0.0
22/11:00am 17.4 14.7 10.5 64 3.7 SSW 15 20 8 11 1024.4 1024.2 0.0
22/10:30am 15.5 11.9 10.5 72 2.7 SSW 20 28 11 15 1024.6 1024.4 0.0
22/10:00am 15.5 12.4 11.7 78 2.1 SSW 19 28 10 15 1024.4 1024.2 0.0
22/09:30am 14.6 12.6 14.0 96 0.3 W 17 24 9 13 1024.3 1024.1 0.0
22/09:00am 14.5 12.0 12.4 87 1.1 S 17 24 9 13 1024.0 1023.8 3.2
22/08:30am 15.1 13.5 14.9 99 0.1 SSW 17 20 9 11 1023.7 1023.6 3.2
22/08:00am 15.0 14.9 15.0 100 0.0 SW 9 13 5 7 1023.6 1023.5 3.2
22/07:30am 13.5 12.5 13.5 100 0.0 W 11 15 6 8 1023.3 1023.2 3.2
22/07:00am 12.9 11.7 12.9 100 0.0 W 11 15 6 8 1022.9 1022.8 3.2
22/06:30am 11.9 11.4 11.9 100 0.0 W 6 9 3 5 1022.3 1022.2 3.2
22/06:06am 11.7 10.5 11.7 100 0.0 W 9 13 5 7 1022.2 1022.1 3.2
22/06:04am 11.7 10.5 11.7 100 0.0 W 9 13 5 7 1022.1 1022.0 3.2
22/06:00am 11.7 9.8 11.7 100 0.0 W 13 20 7 11 1022.2 1022.1 3.2
22/05:47am 11.6 9.3 11.6 100 0.0 W 15 19 8 10 1022.0 1021.9 3.2
22/05:39am 11.7 9.4 11.7 100 0.0 W 15 19 8 10 1021.9 1021.8 3.0
22/05:30am 11.6 10.0 11.6 100 0.0 W 11 17 6 9 1021.7 1021.6 3.0
22/05:00am 11.7 10.5 11.7 100 0.0 W 9 13 5 7 1021.4 1021.3 1.4
22/04:52am 11.6 10.4 11.6 100 0.0 W 9 13 5 7 1021.3 1021.2 1.4
22/04:51am 11.6 10.4 11.6 100 0.0 W 9 13 5 7 1021.2 1021.1 1.4
22/04:45am 11.6 10.4 11.6 100 0.0 W 9 13 5 7 1021.1 1020.9 1.4
22/04:30am 11.5 9.9 11.5 100 0.0 WNW 11 17 6 9 1020.9 1020.7 1.4
22/04:06am 11.7 9.4 11.7 100 0.0 W 15 19 8 10 1020.7 1020.5 1.4
22/04:00am 11.7 9.4 11.7 100 0.0 W 15 20 8 11 1020.6 1020.4 1.4
22/03:39am 11.8 9.1 11.8 100 0.0 W 17 20 9 11 1020.5 1020.3 1.2
22/03:30am 11.7 9.4 11.7 100 0.0 WNW 15 19 8 10 1020.4 1020.2 0.6
22/03:23am 11.7 9.4 11.7 100 0.0 WNW 15 20 8 11 1020.3 1020.1 0.6
22/03:10am 11.7 9.8 11.7 100 0.0 WNW 13 19 7 10 1020.1 1019.9 0.6
22/03:00am 11.7 10.1 11.7 100 0.0 WNW 11 13 6 7 1020.0 1019.8 0.6
22/02:47am 11.6 10.4 11.6 100 0.0 WNW 9 11 5 6 1020.1 1019.9 0.4
22/02:30am 11.2 9.5 11.2 100 0.0 WNW 11 13 6 7 1019.8 1019.6 0.4
22/02:10am 11.8 10.3 11.8 100 0.0 WNW 11 17 6 9 1019.6 1019.4 0.4
22/02:00am 11.9 10.0 11.9 100 0.0 NW 13 17 7 9 1019.5 1019.3 0.4
22/01:47am 12.2 10.4 12.2 100 0.0 W 13 17 7 9 1019.8 1019.6 0.2
22/01:30am 12.1 10.7 12.1 100 0.0 WNW 11 15 6 8 1019.5 1019.3 0.2
22/01:00am 12.0 10.5 12.0 100 0.0 NW 11 15 6 8 1019.4 1019.2 0.2
22/12:30am 12.1 11.0 12.1 100 0.0 WNW 9 13 5 7 1019.6 1019.4 0.2
22/12:00am 12.0 10.9 12.0 100 0.0 WNW 9 11 5 6 1019.8 1019.6 0.2
 
Date/Time
WST
Temp
°C
App
Temp
°C
Dew
Point
°C
Rel
Hum
%
Delta-T
°C
Wind Press
QNH
hPa
Press
MSL
hPa
Rain since
9am
mm
Dir  Spd
km/h
Gust
km/h
Spd
kts
Gust
kts
21/11:30pm 11.9 10.8 11.9 100 0.0 W 9 11 5 6 1019.7 1019.5 0.2
21/11:00pm 12.3 10.9 12.1 99 0.1 W 11 15 6 8 1019.7 1019.5 0.2
21/10:53pm 12.4 10.6 12.2 99 0.1 W 13 17 7 9 1019.7 1019.5 0.2
21/10:36pm 13.0 11.4 12.8 99 0.1 SW 13 19 7 10 1019.7 1019.5 0.0
21/10:30pm 13.4 10.6 13.2 99 0.1 SW 20 28 11 15 1019.7 1019.5 0.0
21/10:00pm 13.4 12.7 13.2 99 0.1 WSW 9 13 5 7 1019.3 1019.1 0.0
21/09:30pm 13.5 13.2 13.3 99 0.1 WSW 7 11 4 6 1019.2 1019.0 0.0
21/09:00pm 13.5 12.4 13.2 98 0.2 SSW 11 15 6 8 1019.1 1018.9 0.0
21/08:30pm 13.6 12.9 13.3 98 0.2 SSW 9 13 5 7 1018.9 1018.7 0.0
21/08:00pm 13.9 12.6 13.7 99 0.1 SW 13 17 7 9 1018.9 1018.7 0.0
21/07:30pm 14.1 12.7 13.5 96 0.3 SSW 13 17 7 9 1018.3 1018.1 0.0
21/07:00pm 14.2 12.3 12.9 92 0.7 SSW 15 19 8 10 1017.6 1017.4 0.0
21/06:30pm 14.8 12.0 12.5 86 1.3 SSW 19 24 10 13 1017.2 1017.0 0.0
21/06:00pm 15.1 12.1 12.6 85 1.4 SSW 20 28 11 15 1016.7 1016.5 0.0
21/05:30pm 15.6 12.4 12.0 79 2.0 SW 20 30 11 16 1016.0 1015.9 0.0
21/05:00pm 16.0 12.7 11.6 75 2.4 SW 20 28 11 15 1015.3 1015.2 0.0
21/04:30pm 16.1 12.5 11.9 76 2.3 SSW 22 28 12 15 1014.9 1014.7 0.0
21/04:00pm 16.2 12.1 11.4 73 2.6 SW 24 32 13 17 1014.6 1014.4 0.0
21/03:30pm 16.8 12.3 11.5 71 2.9 SW 26 37 14 20 1014.1 1013.9 0.0
21/03:00pm 17.7 12.8 11.3 66 3.5 SW 28 39 15 21 1013.7 1013.5 0.0
21/02:30pm 16.9 12.1 11.8 72 2.8 SW 28 35 15 19 1013.7 1013.5 0.0
21/02:00pm 17.6 12.9 12.1 70 3.0 SW 28 39 15 21 1013.5 1013.3 0.0
21/01:30pm 17.7 13.0 11.9 69 3.2 SW 28 37 15 20 1013.3 1013.1 0.0

Other formats

Comma delimited format used in spreadsheet applications
http://www.bom.gov.au/fwo/IDW60801/IDW60801.95638.axf

JavaScript Object Notation format (JSON) in row-major order
http://www.bom.gov.au/fwo/IDW60801/IDW60801.95638.json

Data quality

Most of these data are generated automatically and are frequently updated. Quality checks on data are not normally performed. It is possible for incorrect values to appear. Refer to information at About Latest Weather Observations and please check the disclaimer before using these data.